sensor_id;sensor_type;location;lat;lon;timestamp;temperature;humidity
33271;DHT22;53180;51.344;6.152;2022-12-08T00:02:00;4.00;92.30
33271;DHT22;53180;51.344;6.152;2022-12-08T00:04:29;4.00;92.40
33271;DHT22;53180;51.344;6.152;2022-12-08T00:07:18;3.90;92.30
33271;DHT22;53180;51.344;6.152;2022-12-08T00:10:05;4.00;92.40
33271;DHT22;53180;51.344;6.152;2022-12-08T00:12:54;4.00;92.40
33271;DHT22;53180;51.344;6.152;2022-12-08T00:15:23;3.90;92.40
33271;DHT22;53180;51.344;6.152;2022-12-08T00:17:52;4.00;92.40
33271;DHT22;53180;51.344;6.152;2022-12-08T00:20:20;3.90;92.40
33271;DHT22;53180;51.344;6.152;2022-12-08T00:22:48;3.90;92.50
33271;DHT22;53180;51.344;6.152;2022-12-08T00:25:17;3.90;92.40
33271;DHT22;53180;51.344;6.152;2022-12-08T00:27:45;3.90;92.50
33271;DHT22;53180;51.344;6.152;2022-12-08T00:30:13;3.90;92.50
33271;DHT22;53180;51.344;6.152;2022-12-08T00:32:43;3.90;92.60
33271;DHT22;53180;51.344;6.152;2022-12-08T00:35:12;3.90;92.50
33271;DHT22;53180;51.344;6.152;2022-12-08T00:37:40;4.00;92.60
33271;DHT22;53180;51.344;6.152;2022-12-08T00:40:09;4.00;92.50
33271;DHT22;53180;51.344;6.152;2022-12-08T00:42:37;3.90;92.60
33271;DHT22;53180;51.344;6.152;2022-12-08T00:45:06;4.00;92.60
33271;DHT22;53180;51.344;6.152;2022-12-08T00:47:35;4.00;92.70
33271;DHT22;53180;51.344;6.152;2022-12-08T00:50:06;4.00;92.70
33271;DHT22;53180;51.344;6.152;2022-12-08T00:52:35;4.00;92.80
33271;DHT22;53180;51.344;6.152;2022-12-08T00:55:04;4.00;92.80
33271;DHT22;53180;51.344;6.152;2022-12-08T00:57:33;4.00;92.80
33271;DHT22;53180;51.344;6.152;2022-12-08T01:00:01;4.00;92.80
33271;DHT22;53180;51.344;6.152;2022-12-08T01:02:30;4.00;92.70
33271;DHT22;53180;51.344;6.152;2022-12-08T01:05:00;4.00;92.60
33271;DHT22;53180;51.344;6.152;2022-12-08T01:07:32;4.00;92.70
33271;DHT22;53180;51.344;6.152;2022-12-08T01:10:01;4.00;92.70
33271;DHT22;53180;51.344;6.152;2022-12-08T01:12:30;4.10;92.70
33271;DHT22;53180;51.344;6.152;2022-12-08T01:14:58;4.10;92.70
33271;DHT22;53180;51.344;6.152;2022-12-08T01:17:28;4.10;92.70
33271;DHT22;53180;51.344;6.152;2022-12-08T01:19:56;4.10;92.70
33271;DHT22;53180;51.344;6.152;2022-12-08T01:22:25;4.10;92.60
33271;DHT22;53180;51.344;6.152;2022-12-08T01:24:54;4.10;92.70
33271;DHT22;53180;51.344;6.152;2022-12-08T01:27:23;4.10;92.60
33271;DHT22;53180;51.344;6.152;2022-12-08T01:29:51;4.10;92.50
33271;DHT22;53180;51.344;6.152;2022-12-08T01:32:19;4.10;92.40
33271;DHT22;53180;51.344;6.152;2022-12-08T01:34:47;4.10;92.50
33271;DHT22;53180;51.344;6.152;2022-12-08T01:37:15;4.10;92.50
33271;DHT22;53180;51.344;6.152;2022-12-08T01:39:44;4.10;92.40
33271;DHT22;53180;51.344;6.152;2022-12-08T01:42:20;4.00;92.40
33271;DHT22;53180;51.344;6.152;2022-12-08T01:44:57;4.10;92.40
33271;DHT22;53180;51.344;6.152;2022-12-08T01:47:31;4.10;92.40
33271;DHT22;53180;51.344;6.152;2022-12-08T01:50:06;4.10;92.40
33271;DHT22;53180;51.344;6.152;2022-12-08T01:52:39;4.10;92.30
33271;DHT22;53180;51.344;6.152;2022-12-08T01:55:12;4.10;92.30
33271;DHT22;53180;51.344;6.152;2022-12-08T01:57:46;4.10;92.40
33271;DHT22;53180;51.344;6.152;2022-12-08T02:00:19;4.10;92.20
33271;DHT22;53180;51.344;6.152;2022-12-08T02:02:52;4.10;92.30
33271;DHT22;53180;51.344;6.152;2022-12-08T02:05:26;4.10;92.20
33271;DHT22;53180;51.344;6.152;2022-12-08T02:07:56;4.10;92.10
33271;DHT22;53180;51.344;6.152;2022-12-08T02:10:28;4.10;92.10
33271;DHT22;53180;51.344;6.152;2022-12-08T02:13:00;4.10;92.00
33271;DHT22;53180;51.344;6.152;2022-12-08T02:15:33;4.10;92.10
33271;DHT22;53180;51.344;6.152;2022-12-08T02:18:16;4.10;92.10
33271;DHT22;53180;51.344;6.152;2022-12-08T02:21:00;4.10;92.10
33271;DHT22;53180;51.344;6.152;2022-12-08T02:23:38;4.10;92.20
33271;DHT22;53180;51.344;6.152;2022-12-08T02:33:14;4.00;92.30
33271;DHT22;53180;51.344;6.152;2022-12-08T02:35:58;4.10;92.30
33271;DHT22;53180;51.344;6.152;2022-12-08T02:38:46;4.10;92.20
33271;DHT22;53180;51.344;6.152;2022-12-08T02:41:24;4.10;92.20
33271;DHT22;53180;51.344;6.152;2022-12-08T02:44:05;4.10;92.10
33271;DHT22;53180;51.344;6.152;2022-12-08T02:46:42;4.10;92.10
33271;DHT22;53180;51.344;6.152;2022-12-08T02:49:13;4.10;92.10
33271;DHT22;53180;51.344;6.152;2022-12-08T02:51:43;4.10;92.10
33271;DHT22;53180;51.344;6.152;2022-12-08T02:54:12;4.10;92.10
33271;DHT22;53180;51.344;6.152;2022-12-08T02:57:04;4.10;92.00
33271;DHT22;53180;51.344;6.152;2022-12-08T03:00:01;4.10;92.10
33271;DHT22;53180;51.344;6.152;2022-12-08T03:02:44;4.10;92.20
33271;DHT22;53180;51.344;6.152;2022-12-08T03:05:28;4.10;92.20
33271;DHT22;53180;51.344;6.152;2022-12-08T03:08:08;4.10;92.20
33271;DHT22;53180;51.344;6.152;2022-12-08T03:10:43;4.10;92.20
33271;DHT22;53180;51.344;6.152;2022-12-08T03:13:18;4.10;92.20
33271;DHT22;53180;51.344;6.152;2022-12-08T03:15:49;4.10;92.20
33271;DHT22;53180;51.344;6.152;2022-12-08T03:18:22;4.20;92.30
33271;DHT22;53180;51.344;6.152;2022-12-08T03:20:54;4.20;92.20
33271;DHT22;53180;51.344;6.152;2022-12-08T03:23:25;4.10;92.10
33271;DHT22;53180;51.344;6.152;2022-12-08T03:25:57;4.20;92.10
33271;DHT22;53180;51.344;6.152;2022-12-08T03:28:29;4.20;92.30
33271;DHT22;53180;51.344;6.152;2022-12-08T03:31:01;4.20;92.20
33271;DHT22;53180;51.344;6.152;2022-12-08T03:33:36;4.20;92.20
33271;DHT22;53180;51.344;6.152;2022-12-08T03:36:07;4.20;92.20
33271;DHT22;53180;51.344;6.152;2022-12-08T03:38:41;4.20;92.20
33271;DHT22;53180;51.344;6.152;2022-12-08T03:41:11;4.20;92.10
33271;DHT22;53180;51.344;6.152;2022-12-08T03:43:46;4.20;92.20
33271;DHT22;53180;51.344;6.152;2022-12-08T03:46:16;4.20;92.10
33271;DHT22;53180;51.344;6.152;2022-12-08T03:48:44;4.20;92.00
33271;DHT22;53180;51.344;6.152;2022-12-08T03:51:13;4.20;91.90
33271;DHT22;53180;51.344;6.152;2022-12-08T03:53:44;4.20;92.00
33271;DHT22;53180;51.344;6.152;2022-12-08T03:56:23;4.20;92.10
33271;DHT22;53180;51.344;6.152;2022-12-08T03:58:53;4.20;92.00
33271;DHT22;53180;51.344;6.152;2022-12-08T04:01:22;4.20;92.00
33271;DHT22;53180;51.344;6.152;2022-12-08T04:03:51;4.20;92.00
33271;DHT22;53180;51.344;6.152;2022-12-08T04:06:20;4.20;92.00
33271;DHT22;53180;51.344;6.152;2022-12-08T04:08:50;4.20;92.00
33271;DHT22;53180;51.344;6.152;2022-12-08T04:11:19;4.20;92.00
33271;DHT22;53180;51.344;6.152;2022-12-08T04:13:47;4.20;91.90
33271;DHT22;53180;51.344;6.152;2022-12-08T04:16:18;4.20;91.90
33271;DHT22;53180;51.344;6.152;2022-12-08T04:18:48;4.20;91.90
33271;DHT22;53180;51.344;6.152;2022-12-08T04:21:17;4.20;91.90
33271;DHT22;53180;51.344;6.152;2022-12-08T04:23:45;4.20;92.00
33271;DHT22;53180;51.344;6.152;2022-12-08T04:26:16;4.20;92.00
33271;DHT22;53180;51.344;6.152;2022-12-08T04:28:44;4.20;92.00
33271;DHT22;53180;51.344;6.152;2022-12-08T04:31:12;4.20;92.00
33271;DHT22;53180;51.344;6.152;2022-12-08T04:33:43;4.20;92.00
33271;DHT22;53180;51.344;6.152;2022-12-08T04:36:11;4.20;92.00
33271;DHT22;53180;51.344;6.152;2022-12-08T04:38:39;4.30;92.10
33271;DHT22;53180;51.344;6.152;2022-12-08T04:41:08;4.20;92.10
33271;DHT22;53180;51.344;6.152;2022-12-08T04:43:37;4.20;92.00
33271;DHT22;53180;51.344;6.152;2022-12-08T04:46:07;4.30;92.20
33271;DHT22;53180;51.344;6.152;2022-12-08T04:48:37;4.20;92.20
33271;DHT22;53180;51.344;6.152;2022-12-08T04:51:06;4.30;92.30
33271;DHT22;53180;51.344;6.152;2022-12-08T04:53:41;4.20;92.40
33271;DHT22;53180;51.344;6.152;2022-12-08T04:56:12;4.20;92.40
33271;DHT22;53180;51.344;6.152;2022-12-08T04:58:43;4.20;92.40
33271;DHT22;53180;51.344;6.152;2022-12-08T05:01:11;4.30;92.50
33271;DHT22;53180;51.344;6.152;2022-12-08T05:03:40;4.30;92.60
33271;DHT22;53180;51.344;6.152;2022-12-08T05:06:10;4.20;92.60
33271;DHT22;53180;51.344;6.152;2022-12-08T05:08:40;4.20;92.70
33271;DHT22;53180;51.344;6.152;2022-12-08T05:11:10;4.20;92.70
33271;DHT22;53180;51.344;6.152;2022-12-08T05:13:39;4.20;92.80
33271;DHT22;53180;51.344;6.152;2022-12-08T05:16:10;4.20;92.90
33271;DHT22;53180;51.344;6.152;2022-12-08T05:18:41;4.20;92.80
33271;DHT22;53180;51.344;6.152;2022-12-08T05:21:10;4.20;92.90
33271;DHT22;53180;51.344;6.152;2022-12-08T05:23:38;4.20;92.90
33271;DHT22;53180;51.344;6.152;2022-12-08T05:26:06;4.20;92.90
33271;DHT22;53180;51.344;6.152;2022-12-08T05:28:35;4.20;93.00
33271;DHT22;53180;51.344;6.152;2022-12-08T05:31:10;4.20;93.00
33271;DHT22;53180;51.344;6.152;2022-12-08T05:33:39;4.20;93.10
33271;DHT22;53180;51.344;6.152;2022-12-08T05:36:08;4.20;93.20
33271;DHT22;53180;51.344;6.152;2022-12-08T05:38:38;4.20;93.10
33271;DHT22;53180;51.344;6.152;2022-12-08T05:41:07;4.20;93.20
33271;DHT22;53180;51.344;6.152;2022-12-08T05:43:36;4.20;93.20
33271;DHT22;53180;51.344;6.152;2022-12-08T05:46:04;4.20;93.30
33271;DHT22;53180;51.344;6.152;2022-12-08T05:48:36;4.20;93.20
33271;DHT22;53180;51.344;6.152;2022-12-08T05:51:11;4.10;93.20
33271;DHT22;53180;51.344;6.152;2022-12-08T05:53:43;4.10;93.10
33271;DHT22;53180;51.344;6.152;2022-12-08T05:56:12;4.10;93.20
33271;DHT22;53180;51.344;6.152;2022-12-08T05:58:40;4.10;93.20
33271;DHT22;53180;51.344;6.152;2022-12-08T06:01:18;4.10;93.30
33271;DHT22;53180;51.344;6.152;2022-12-08T06:03:49;4.00;93.20
33271;DHT22;53180;51.344;6.152;2022-12-08T06:06:18;4.00;93.30
33271;DHT22;53180;51.344;6.152;2022-12-08T06:08:46;4.00;93.30
33271;DHT22;53180;51.344;6.152;2022-12-08T06:11:18;4.10;93.40
33271;DHT22;53180;51.344;6.152;2022-12-08T06:13:47;4.00;93.30
33271;DHT22;53180;51.344;6.152;2022-12-08T06:16:16;4.10;93.30
33271;DHT22;53180;51.344;6.152;2022-12-08T06:18:45;4.00;93.30
33271;DHT22;53180;51.344;6.152;2022-12-08T06:21:15;4.00;93.40
33271;DHT22;53180;51.344;6.152;2022-12-08T06:23:46;4.00;93.40
33271;DHT22;53180;51.344;6.152;2022-12-08T06:26:16;4.00;93.40
33271;DHT22;53180;51.344;6.152;2022-12-08T06:28:44;4.00;93.50
33271;DHT22;53180;51.344;6.152;2022-12-08T06:31:15;4.00;93.50
33271;DHT22;53180;51.344;6.152;2022-12-08T06:33:45;3.90;93.50
33271;DHT22;53180;51.344;6.152;2022-12-08T06:36:17;4.00;93.60
33271;DHT22;53180;51.344;6.152;2022-12-08T06:38:47;4.00;93.70
33271;DHT22;53180;51.344;6.152;2022-12-08T06:41:16;4.00;93.70
33271;DHT22;53180;51.344;6.152;2022-12-08T06:43:45;3.90;93.70
33271;DHT22;53180;51.344;6.152;2022-12-08T06:46:15;3.90;93.70
33271;DHT22;53180;51.344;6.152;2022-12-08T06:48:45;3.90;93.60
33271;DHT22;53180;51.344;6.152;2022-12-08T06:51:19;3.90;93.70
33271;DHT22;53180;51.344;6.152;2022-12-08T06:53:49;3.90;93.80
33271;DHT22;53180;51.344;6.152;2022-12-08T06:56:17;3.90;93.70
33271;DHT22;53180;51.344;6.152;2022-12-08T06:58:46;3.80;93.70
33271;DHT22;53180;51.344;6.152;2022-12-08T07:01:18;3.80;93.80
33271;DHT22;53180;51.344;6.152;2022-12-08T07:03:47;3.90;93.90
33271;DHT22;53180;51.344;6.152;2022-12-08T07:06:19;3.80;93.80
33271;DHT22;53180;51.344;6.152;2022-12-08T07:08:49;3.80;93.80
33271;DHT22;53180;51.344;6.152;2022-12-08T07:11:18;3.80;93.80
33271;DHT22;53180;51.344;6.152;2022-12-08T07:13:48;3.80;93.90
33271;DHT22;53180;51.344;6.152;2022-12-08T07:16:17;3.70;93.90
33271;DHT22;53180;51.344;6.152;2022-12-08T07:18:45;3.70;93.90
33271;DHT22;53180;51.344;6.152;2022-12-08T07:21:14;3.70;94.00
33271;DHT22;53180;51.344;6.152;2022-12-08T07:23:45;3.70;94.00
33271;DHT22;53180;51.344;6.152;2022-12-08T07:26:21;3.70;94.00
33271;DHT22;53180;51.344;6.152;2022-12-08T07:28:49;3.70;94.00
33271;DHT22;53180;51.344;6.152;2022-12-08T07:31:19;3.70;94.10
33271;DHT22;53180;51.344;6.152;2022-12-08T07:33:49;3.70;94.10
33271;DHT22;53180;51.344;6.152;2022-12-08T07:36:19;3.70;94.10
33271;DHT22;53180;51.344;6.152;2022-12-08T07:38:48;3.60;94.10
33271;DHT22;53180;51.344;6.152;2022-12-08T07:41:19;3.70;94.20
33271;DHT22;53180;51.344;6.152;2022-12-08T07:43:49;3.60;94.30
33271;DHT22;53180;51.344;6.152;2022-12-08T07:46:21;3.70;94.40
33271;DHT22;53180;51.344;6.152;2022-12-08T07:48:51;3.70;94.40
33271;DHT22;53180;51.344;6.152;2022-12-08T07:51:21;3.70;94.50
33271;DHT22;53180;51.344;6.152;2022-12-08T07:53:51;3.70;94.50
33271;DHT22;53180;51.344;6.152;2022-12-08T07:56:21;3.70;94.60
33271;DHT22;53180;51.344;6.152;2022-12-08T07:58:50;3.70;94.60
33271;DHT22;53180;51.344;6.152;2022-12-08T08:01:23;3.70;94.60
33271;DHT22;53180;51.344;6.152;2022-12-08T08:03:54;3.70;94.70
33271;DHT22;53180;51.344;6.152;2022-12-08T08:06:24;3.70;94.70
33271;DHT22;53180;51.344;6.152;2022-12-08T08:08:53;3.70;94.70
33271;DHT22;53180;51.344;6.152;2022-12-08T08:11:22;3.70;94.70
33271;DHT22;53180;51.344;6.152;2022-12-08T08:13:51;3.70;94.80
33271;DHT22;53180;51.344;6.152;2022-12-08T08:16:19;3.70;94.70
33271;DHT22;53180;51.344;6.152;2022-12-08T08:18:49;3.70;94.80
33271;DHT22;53180;51.344;6.152;2022-12-08T08:21:18;3.70;94.80
33271;DHT22;53180;51.344;6.152;2022-12-08T08:24:08;3.70;94.80
33271;DHT22;53180;51.344;6.152;2022-12-08T08:26:38;3.70;94.80
33271;DHT22;53180;51.344;6.152;2022-12-08T08:29:06;3.70;94.80
33271;DHT22;53180;51.344;6.152;2022-12-08T08:31:35;3.70;94.80
33271;DHT22;53180;51.344;6.152;2022-12-08T08:34:03;3.60;94.70
33271;DHT22;53180;51.344;6.152;2022-12-08T08:36:32;3.60;94.70
33271;DHT22;53180;51.344;6.152;2022-12-08T08:39:00;3.70;94.70
33271;DHT22;53180;51.344;6.152;2022-12-08T08:41:30;3.70;94.70
33271;DHT22;53180;51.344;6.152;2022-12-08T08:43:59;3.70;94.70
33271;DHT22;53180;51.344;6.152;2022-12-08T08:46:27;3.70;94.60
33271;DHT22;53180;51.344;6.152;2022-12-08T08:48:55;3.70;94.70
33271;DHT22;53180;51.344;6.152;2022-12-08T08:51:24;3.60;94.70
33271;DHT22;53180;51.344;6.152;2022-12-08T08:53:52;3.70;94.70
33271;DHT22;53180;51.344;6.152;2022-12-08T08:56:21;3.70;94.80
33271;DHT22;53180;51.344;6.152;2022-12-08T08:58:52;3.70;94.70
33271;DHT22;53180;51.344;6.152;2022-12-08T09:01:22;3.70;94.70
33271;DHT22;53180;51.344;6.152;2022-12-08T09:03:51;3.70;94.70
33271;DHT22;53180;51.344;6.152;2022-12-08T09:06:20;3.70;94.70
33271;DHT22;53180;51.344;6.152;2022-12-08T09:08:49;3.70;94.60
33271;DHT22;53180;51.344;6.152;2022-12-08T09:11:18;3.60;94.60
33271;DHT22;53180;51.344;6.152;2022-12-08T09:13:46;3.60;94.60
33271;DHT22;53180;51.344;6.152;2022-12-08T09:16:17;3.60;94.50
33271;DHT22;53180;51.344;6.152;2022-12-08T09:18:46;3.70;94.50
33271;DHT22;53180;51.344;6.152;2022-12-08T09:21:16;3.70;94.60
33271;DHT22;53180;51.344;6.152;2022-12-08T09:23:48;3.70;94.60
33271;DHT22;53180;51.344;6.152;2022-12-08T09:26:16;3.60;94.60
33271;DHT22;53180;51.344;6.152;2022-12-08T09:28:48;3.60;94.60
33271;DHT22;53180;51.344;6.152;2022-12-08T09:31:19;3.70;94.60
33271;DHT22;53180;51.344;6.152;2022-12-08T09:33:49;3.70;94.60
33271;DHT22;53180;51.344;6.152;2022-12-08T09:36:18;3.70;94.70
33271;DHT22;53180;51.344;6.152;2022-12-08T09:38:47;3.70;94.60
33271;DHT22;53180;51.344;6.152;2022-12-08T09:41:20;3.70;94.60
33271;DHT22;53180;51.344;6.152;2022-12-08T09:44:10;3.70;94.60
33271;DHT22;53180;51.344;6.152;2022-12-08T09:46:52;3.70;94.50
33271;DHT22;53180;51.344;6.152;2022-12-08T09:49:21;3.70;94.50
33271;DHT22;53180;51.344;6.152;2022-12-08T09:51:52;3.70;94.50
33271;DHT22;53180;51.344;6.152;2022-12-08T09:54:24;3.80;94.50
33271;DHT22;53180;51.344;6.152;2022-12-08T09:57:02;3.80;94.50
33271;DHT22;53180;51.344;6.152;2022-12-08T09:59:33;3.70;94.40
33271;DHT22;53180;51.344;6.152;2022-12-08T10:02:17;3.70;94.30
33271;DHT22;53180;51.344;6.152;2022-12-08T10:04:48;3.80;94.40
33271;DHT22;53180;51.344;6.152;2022-12-08T10:07:20;3.80;94.40
33271;DHT22;53180;51.344;6.152;2022-12-08T10:10:02;3.80;94.30
33271;DHT22;53180;51.344;6.152;2022-12-08T10:12:38;3.80;94.30
33271;DHT22;53180;51.344;6.152;2022-12-08T10:15:34;3.80;94.30
33271;DHT22;53180;51.344;6.152;2022-12-08T10:18:15;3.90;94.30
33271;DHT22;53180;51.344;6.152;2022-12-08T10:20:46;3.90;94.40
33271;DHT22;53180;51.344;6.152;2022-12-08T10:23:27;4.00;94.50
33271;DHT22;53180;51.344;6.152;2022-12-08T10:26:02;4.00;94.40
33271;DHT22;53180;51.344;6.152;2022-12-08T10:28:33;4.00;94.40
33271;DHT22;53180;51.344;6.152;2022-12-08T10:31:15;4.00;94.40
33271;DHT22;53180;51.344;6.152;2022-12-08T10:33:51;4.10;94.20
33271;DHT22;53180;51.344;6.152;2022-12-08T10:36:44;4.10;94.10
33271;DHT22;53180;51.344;6.152;2022-12-08T10:39:29;4.10;94.00
33271;DHT22;53180;51.344;6.152;2022-12-08T10:42:16;4.10;94.00
33271;DHT22;53180;51.344;6.152;2022-12-08T10:44:57;4.00;93.70
33271;DHT22;53180;51.344;6.152;2022-12-08T10:47:27;4.00;93.80
33271;DHT22;53180;51.344;6.152;2022-12-08T10:50:16;4.00;93.80
33271;DHT22;53180;51.344;6.152;2022-12-08T10:52:54;4.00;93.80
33271;DHT22;53180;51.344;6.152;2022-12-08T10:55:24;4.00;93.80
33271;DHT22;53180;51.344;6.152;2022-12-08T10:57:52;4.10;93.60
33271;DHT22;53180;51.344;6.152;2022-12-08T11:00:24;4.00;93.50
33271;DHT22;53180;51.344;6.152;2022-12-08T11:02:57;4.10;93.40
33271;DHT22;53180;51.344;6.152;2022-12-08T11:05:30;4.10;93.50
33271;DHT22;53180;51.344;6.152;2022-12-08T11:08:02;4.20;93.70
33271;DHT22;53180;51.344;6.152;2022-12-08T11:10:34;4.20;93.50
33271;DHT22;53180;51.344;6.152;2022-12-08T11:13:05;4.20;93.50
33271;DHT22;53180;51.344;6.152;2022-12-08T11:15:40;4.20;93.30
33271;DHT22;53180;51.344;6.152;2022-12-08T11:18:21;4.20;93.40
33271;DHT22;53180;51.344;6.152;2022-12-08T11:21:04;4.20;93.40
33271;DHT22;53180;51.344;6.152;2022-12-08T11:23:35;4.20;93.30
33271;DHT22;53180;51.344;6.152;2022-12-08T11:26:13;4.30;93.40
33271;DHT22;53180;51.344;6.152;2022-12-08T11:28:46;4.30;93.40
33271;DHT22;53180;51.344;6.152;2022-12-08T11:31:21;4.30;93.40
33271;DHT22;53180;51.344;6.152;2022-12-08T11:33:55;4.30;93.40
33271;DHT22;53180;51.344;6.152;2022-12-08T11:36:27;4.30;93.50
33271;DHT22;53180;51.344;6.152;2022-12-08T11:38:58;4.30;93.50
33271;DHT22;53180;51.344;6.152;2022-12-08T11:41:32;4.30;93.50
33271;DHT22;53180;51.344;6.152;2022-12-08T11:44:06;4.20;93.30
33271;DHT22;53180;51.344;6.152;2022-12-08T11:46:43;4.20;93.20
33271;DHT22;53180;51.344;6.152;2022-12-08T11:49:15;4.20;92.90
33271;DHT22;53180;51.344;6.152;2022-12-08T11:51:50;4.10;92.80
33271;DHT22;53180;51.344;6.152;2022-12-08T11:54:24;4.00;92.60
33271;DHT22;53180;51.344;6.152;2022-12-08T11:56:55;3.90;92.80
33271;DHT22;53180;51.344;6.152;2022-12-08T11:59:28;3.90;93.20
33271;DHT22;53180;51.344;6.152;2022-12-08T12:01:59;3.80;93.10
33271;DHT22;53180;51.344;6.152;2022-12-08T12:04:32;3.80;93.20
33271;DHT22;53180;51.344;6.152;2022-12-08T12:07:46;3.80;93.40
33271;DHT22;53180;51.344;6.152;2022-12-08T12:10:32;3.80;93.60
33271;DHT22;53180;51.344;6.152;2022-12-08T12:13:24;3.80;93.80
33271;DHT22;53180;51.344;6.152;2022-12-08T12:16:39;3.90;93.80
33271;DHT22;53180;51.344;6.152;2022-12-08T12:19:17;3.90;93.90
33271;DHT22;53180;51.344;6.152;2022-12-08T12:21:48;3.80;94.00
33271;DHT22;53180;51.344;6.152;2022-12-08T12:24:21;3.90;94.10
33271;DHT22;53180;51.344;6.152;2022-12-08T12:27:01;3.90;94.20
33271;DHT22;53180;51.344;6.152;2022-12-08T12:29:35;3.90;94.20
33271;DHT22;53180;51.344;6.152;2022-12-08T12:32:06;3.90;94.40
33271;DHT22;53180;51.344;6.152;2022-12-08T12:34:42;4.00;94.50
33271;DHT22;53180;51.344;6.152;2022-12-08T12:37:16;3.90;94.60
33271;DHT22;53180;51.344;6.152;2022-12-08T12:39:54;3.90;94.60
33271;DHT22;53180;51.344;6.152;2022-12-08T12:42:40;3.90;94.60
33271;DHT22;53180;51.344;6.152;2022-12-08T12:45:24;3.90;94.70
33271;DHT22;53180;51.344;6.152;2022-12-08T12:48:19;3.90;94.70
33271;DHT22;53180;51.344;6.152;2022-12-08T12:50:50;4.00;94.70
33271;DHT22;53180;51.344;6.152;2022-12-08T12:53:50;4.00;94.80
33271;DHT22;53180;51.344;6.152;2022-12-08T12:59:44;4.00;94.60
33271;DHT22;53180;51.344;6.152;2022-12-08T13:02:25;4.10;94.60
33271;DHT22;53180;51.344;6.152;2022-12-08T13:04:58;4.00;94.20
33271;DHT22;53180;51.344;6.152;2022-12-08T13:07:32;4.00;93.90
33271;DHT22;53180;51.344;6.152;2022-12-08T13:10:10;4.10;93.70
33271;DHT22;53180;51.344;6.152;2022-12-08T13:13:03;4.00;93.50
33271;DHT22;53180;51.344;6.152;2022-12-08T13:15:35;4.10;93.50
33271;DHT22;53180;51.344;6.152;2022-12-08T13:18:06;4.10;93.50
33271;DHT22;53180;51.344;6.152;2022-12-08T13:20:49;4.10;93.60
33271;DHT22;53180;51.344;6.152;2022-12-08T13:23:28;4.10;93.70
33271;DHT22;53180;51.344;6.152;2022-12-08T13:26:17;4.10;93.80
33271;DHT22;53180;51.344;6.152;2022-12-08T13:29:20;4.10;93.80
33271;DHT22;53180;51.344;6.152;2022-12-08T13:31:51;4.20;93.70
33271;DHT22;53180;51.344;6.152;2022-12-08T13:34:28;4.20;93.50
33271;DHT22;53180;51.344;6.152;2022-12-08T13:37:12;4.20;93.30
33271;DHT22;53180;51.344;6.152;2022-12-08T13:39:51;4.20;93.50
33271;DHT22;53180;51.344;6.152;2022-12-08T13:42:30;4.20;93.50
33271;DHT22;53180;51.344;6.152;2022-12-08T13:45:13;4.20;93.40
33271;DHT22;53180;51.344;6.152;2022-12-08T13:48:03;4.20;93.40
33271;DHT22;53180;51.344;6.152;2022-12-08T13:51:03;4.20;93.40
33271;DHT22;53180;51.344;6.152;2022-12-08T13:53:58;4.20;93.40
33271;DHT22;53180;51.344;6.152;2022-12-08T13:56:50;4.20;93.50
33271;DHT22;53180;51.344;6.152;2022-12-08T13:59:42;4.10;93.40
33271;DHT22;53180;51.344;6.152;2022-12-08T14:02:17;4.10;93.40
33271;DHT22;53180;51.344;6.152;2022-12-08T14:04:50;4.10;93.30
33271;DHT22;53180;51.344;6.152;2022-12-08T14:07:39;4.10;93.50
33271;DHT22;53180;51.344;6.152;2022-12-08T14:10:11;4.10;93.30
33271;DHT22;53180;51.344;6.152;2022-12-08T14:12:47;4.10;93.30
33271;DHT22;53180;51.344;6.152;2022-12-08T14:15:20;4.10;93.10
33271;DHT22;53180;51.344;6.152;2022-12-08T14:17:55;4.10;93.30
33271;DHT22;53180;51.344;6.152;2022-12-08T14:20:26;4.10;93.30
33271;DHT22;53180;51.344;6.152;2022-12-08T14:22:57;4.10;93.00
33271;DHT22;53180;51.344;6.152;2022-12-08T14:25:26;4.10;92.80
33271;DHT22;53180;51.344;6.152;2022-12-08T14:27:58;4.10;92.80
33271;DHT22;53180;51.344;6.152;2022-12-08T14:30:30;4.10;92.80
33271;DHT22;53180;51.344;6.152;2022-12-08T14:33:02;4.10;93.00
33271;DHT22;53180;51.344;6.152;2022-12-08T14:35:37;4.00;93.10
33271;DHT22;53180;51.344;6.152;2022-12-08T14:38:12;4.00;92.90
33271;DHT22;53180;51.344;6.152;2022-12-08T14:40:42;3.90;92.80
33271;DHT22;53180;51.344;6.152;2022-12-08T14:43:16;3.90;93.00
33271;DHT22;53180;51.344;6.152;2022-12-08T14:45:49;3.90;93.10
33271;DHT22;53180;51.344;6.152;2022-12-08T14:48:23;3.90;93.10
33271;DHT22;53180;51.344;6.152;2022-12-08T14:51:00;3.90;93.10
33271;DHT22;53180;51.344;6.152;2022-12-08T14:53:37;3.90;93.20
33271;DHT22;53180;51.344;6.152;2022-12-08T14:56:08;3.90;93.20
33271;DHT22;53180;51.344;6.152;2022-12-08T14:58:42;3.90;93.30
33271;DHT22;53180;51.344;6.152;2022-12-08T15:01:13;3.90;93.30
33271;DHT22;53180;51.344;6.152;2022-12-08T15:03:45;3.90;93.40
33271;DHT22;53180;51.344;6.152;2022-12-08T15:06:19;3.90;93.30
33271;DHT22;53180;51.344;6.152;2022-12-08T15:08:54;3.90;93.20
33271;DHT22;53180;51.344;6.152;2022-12-08T15:11:34;3.90;93.30
33271;DHT22;53180;51.344;6.152;2022-12-08T15:14:03;3.90;93.20
33271;DHT22;53180;51.344;6.152;2022-12-08T15:16:38;3.80;93.20
33271;DHT22;53180;51.344;6.152;2022-12-08T15:19:17;3.90;93.30
33271;DHT22;53180;51.344;6.152;2022-12-08T15:24:18;3.80;93.40
33271;DHT22;53180;51.344;6.152;2022-12-08T15:26:50;3.80;93.40
33271;DHT22;53180;51.344;6.152;2022-12-08T15:29:21;3.80;93.50
33271;DHT22;53180;51.344;6.152;2022-12-08T15:31:51;3.80;93.50
33271;DHT22;53180;51.344;6.152;2022-12-08T15:34:21;3.80;93.40
33271;DHT22;53180;51.344;6.152;2022-12-08T15:36:51;3.80;93.30
33271;DHT22;53180;51.344;6.152;2022-12-08T15:39:30;3.80;93.20
33271;DHT22;53180;51.344;6.152;2022-12-08T15:42:00;3.70;93.00
33271;DHT22;53180;51.344;6.152;2022-12-08T15:44:29;3.80;93.00
33271;DHT22;53180;51.344;6.152;2022-12-08T15:46:58;3.70;92.90
33271;DHT22;53180;51.344;6.152;2022-12-08T15:49:27;3.80;93.00
33271;DHT22;53180;51.344;6.152;2022-12-08T15:51:55;3.70;93.10
33271;DHT22;53180;51.344;6.152;2022-12-08T15:54:38;3.70;93.10
33271;DHT22;53180;51.344;6.152;2022-12-08T15:57:16;3.70;93.00
33271;DHT22;53180;51.344;6.152;2022-12-08T16:00:24;3.70;92.90
33271;DHT22;53180;51.344;6.152;2022-12-08T16:03:22;3.70;93.00
33271;DHT22;53180;51.344;6.152;2022-12-08T16:06:17;3.70;93.20
33271;DHT22;53180;51.344;6.152;2022-12-08T16:09:17;3.70;93.00
33271;DHT22;53180;51.344;6.152;2022-12-08T16:11:48;3.70;93.00
33271;DHT22;53180;51.344;6.152;2022-12-08T16:14:36;3.60;92.80
33271;DHT22;53180;51.344;6.152;2022-12-08T16:17:25;3.70;92.90
33271;DHT22;53180;51.344;6.152;2022-12-08T16:19:54;3.60;92.80
33271;DHT22;53180;51.344;6.152;2022-12-08T16:22:24;3.60;92.70
33271;DHT22;53180;51.344;6.152;2022-12-08T16:25:14;3.60;92.60
33271;DHT22;53180;51.344;6.152;2022-12-08T16:27:49;3.50;92.60
33271;DHT22;53180;51.344;6.152;2022-12-08T16:30:34;3.50;92.70
33271;DHT22;53180;51.344;6.152;2022-12-08T16:33:03;3.50;92.70
33271;DHT22;53180;51.344;6.152;2022-12-08T16:35:32;3.40;92.70
33271;DHT22;53180;51.344;6.152;2022-12-08T16:38:00;3.40;92.60
33271;DHT22;53180;51.344;6.152;2022-12-08T16:40:28;3.40;92.60